createdAt,value
2022-07-28T00:00:10.304Z,52.83
2022-07-28T00:02:37.407Z,53.57
2022-07-28T00:05:06.205Z,53.88
2022-07-28T00:07:33.754Z,53.78
2022-07-28T00:10:01.121Z,54.07
2022-07-28T00:12:28.560Z,54.49
2022-07-28T00:14:55.576Z,54.38
2022-07-28T00:17:22.673Z,54.70
2022-07-28T00:19:50.892Z,54.30
2022-07-28T00:22:18.861Z,54.18
2022-07-28T00:24:49.166Z,53.83
2022-07-28T00:27:19.239Z,53.54
2022-07-28T00:29:50.380Z,53.47
2022-07-28T00:32:20.372Z,53.81
2022-07-28T00:34:47.532Z,53.86
2022-07-28T00:37:15.054Z,53.74
2022-07-28T00:39:43.698Z,53.44
2022-07-28T00:42:12.153Z,53.88
2022-07-28T00:44:42.041Z,53.86
2022-07-28T00:47:09.194Z,53.85
2022-07-28T00:49:36.361Z,53.50
2022-07-28T00:52:06.235Z,53.78
2022-07-28T00:54:34.128Z,54.85
2022-07-28T00:57:01.130Z,56.00
2022-07-28T00:59:28.210Z,56.37
2022-07-28T01:01:56.331Z,55.80
2022-07-28T01:04:25.381Z,54.89
2022-07-28T01:07:26.786Z,54.95
2022-07-28T01:10:11.813Z,54.76
2022-07-28T01:13:10.636Z,54.54
2022-07-28T01:15:47.976Z,54.77
2022-07-28T01:18:25.935Z,55.07
2022-07-28T01:21:19.379Z,55.18
2022-07-28T01:24:24.912Z,54.71
2022-07-28T01:27:11.108Z,53.75
2022-07-28T01:30:28.762Z,53.86
2022-07-28T01:33:09.753Z,53.89
2022-07-28T01:35:46.295Z,54.08
2022-07-28T01:38:17.282Z,54.77
2022-07-28T01:40:48.276Z,54.85
2022-07-28T01:43:24.295Z,55.68
2022-07-28T01:45:55.586Z,55.73
2022-07-28T01:48:26.485Z,55.41
2022-07-28T01:50:56.333Z,56.21
2022-07-28T01:53:25.549Z,56.04
2022-07-28T01:55:53.489Z,55.82
2022-07-28T01:58:24.960Z,55.64
2022-07-28T02:00:54.616Z,55.85
2022-07-28T02:03:25.327Z,56.30
2022-07-28T02:05:55.810Z,56.43
2022-07-28T02:08:25.102Z,56.09
2022-07-28T02:11:16.966Z,55.72
2022-07-28T02:13:47.185Z,55.54
2022-07-28T02:16:20.990Z,55.79
2022-07-28T02:18:50.488Z,55.46
2022-07-28T02:21:19.495Z,55.63
2022-07-28T02:23:49.299Z,55.78
2022-07-28T02:26:22.660Z,55.97
2022-07-28T02:28:55.002Z,55.74
2022-07-28T02:31:37.105Z,55.70
2022-07-28T02:34:12.409Z,55.73
2022-07-28T02:36:48.474Z,56.96
2022-07-28T02:39:26.723Z,56.46
2022-07-28T02:42:13.861Z,56.83
2022-07-28T02:44:47.164Z,56.59
2022-07-28T02:47:22.830Z,56.74
2022-07-28T02:49:51.602Z,57.07
2022-07-28T02:52:24.028Z,57.37
2022-07-28T02:54:54.061Z,57.95
2022-07-28T02:57:23.148Z,58.75
2022-07-28T02:59:51.598Z,58.57
2022-07-28T03:02:21.632Z,58.63
2022-07-28T03:04:59.320Z,58.87
2022-07-28T03:07:32.418Z,58.87
2022-07-28T03:09:59.898Z,58.32
2022-07-28T03:12:27.253Z,58.29
2022-07-28T03:14:54.442Z,58.26
2022-07-28T03:17:21.512Z,57.66
2022-07-28T03:19:48.542Z,58.01
2022-07-28T03:22:15.698Z,57.44
2022-07-28T03:24:48.555Z,57.51
2022-07-28T03:27:25.119Z,58.30
2022-07-28T03:30:16.162Z,58.17
2022-07-28T03:32:54.438Z,58.55
2022-07-28T03:35:22.725Z,58.52
2022-07-28T03:37:59.493Z,58.79
2022-07-28T03:40:29.882Z,58.28
2022-07-28T03:42:59.618Z,59.12
2022-07-28T03:45:27.085Z,59.10
2022-07-28T03:47:57.305Z,58.64
2022-07-28T03:50:27.148Z,59.16
2022-07-28T03:52:55.501Z,59.55
2022-07-28T03:55:23.986Z,59.78
2022-07-28T03:57:51.072Z,60.98
2022-07-28T04:00:18.602Z,61.08
2022-07-28T04:02:47.273Z,61.68
2022-07-28T04:05:17.595Z,61.32
2022-07-28T04:07:46.089Z,60.46
2022-07-28T04:10:16.098Z,59.61
2022-07-28T04:12:52.742Z,59.48
2022-07-28T04:15:20.361Z,59.00
2022-07-28T04:17:50.777Z,59.03
2022-07-28T04:20:19.013Z,58.69
2022-07-28T04:22:47.067Z,58.46
2022-07-28T04:25:15.992Z,58.71
2022-07-28T04:27:44.433Z,59.44
2022-07-28T04:30:17.295Z,59.98
2022-07-28T04:32:45.197Z,59.88
2022-07-28T04:35:17.289Z,59.36
2022-07-28T04:37:46.726Z,59.55
2022-07-28T04:40:14.552Z,58.89
2022-07-28T04:42:42.748Z,59.14
2022-07-28T04:45:11.819Z,58.77
2022-07-28T04:47:39.654Z,58.22
2022-07-28T04:50:10.081Z,58.98
2022-07-28T04:52:38.337Z,59.32
2022-07-28T04:55:06.520Z,59.14
2022-07-28T04:57:33.533Z,59.14
2022-07-28T05:00:00.994Z,58.47
2022-07-28T05:02:28.071Z,59.40
2022-07-28T05:04:54.984Z,58.95
2022-07-28T05:07:22.098Z,58.92
2022-07-28T05:09:48.968Z,59.40
2022-07-28T05:12:15.779Z,60.38
2022-07-28T05:14:42.779Z,60.53
2022-07-28T05:17:09.790Z,60.02
2022-07-28T05:19:37.087Z,59.32
2022-07-28T05:22:04.416Z,58.70
2022-07-28T05:24:31.858Z,59.36
2022-07-28T05:26:59.628Z,58.45
2022-07-28T05:29:26.644Z,57.89
2022-07-28T05:32:16.635Z,57.08
2022-07-28T05:34:45.780Z,56.57
2022-07-28T05:37:12.820Z,57.19
2022-07-28T05:39:39.637Z,56.69
2022-07-28T05:42:06.858Z,56.85
2022-07-28T05:44:38.221Z,56.82
2022-07-28T05:47:06.301Z,56.27
2022-07-28T05:49:33.773Z,55.59
2022-07-28T05:52:00.612Z,56.09
2022-07-28T05:54:28.168Z,55.43
2022-07-28T05:56:55.080Z,55.52
2022-07-28T05:59:22.005Z,55.19
2022-07-28T06:01:48.897Z,54.77
2022-07-28T06:04:31.568Z,54.53
2022-07-28T06:06:58.561Z,54.51
2022-07-28T06:09:25.381Z,54.45
2022-07-28T06:11:52.194Z,54.26
2022-07-28T06:14:19.500Z,54.21
2022-07-28T06:16:50.963Z,54.45
2022-07-28T06:19:19.066Z,53.98
2022-07-28T06:21:47.336Z,54.14
2022-07-28T06:24:14.686Z,54.22
2022-07-28T06:26:44.692Z,54.04
2022-07-28T06:29:12.570Z,53.98
2022-07-28T06:31:40.010Z,54.39
2022-07-28T06:34:07.197Z,54.02
2022-07-28T06:36:34.294Z,53.76
2022-07-28T06:39:01.323Z,53.39
2022-07-28T06:41:28.706Z,53.22
2022-07-28T06:43:55.556Z,53.14
2022-07-28T06:46:22.841Z,53.23
2022-07-28T06:48:49.792Z,53.01
2022-07-28T06:51:20.181Z,52.77
2022-07-28T06:53:48.244Z,53.02
2022-07-28T06:56:16.092Z,52.40
2022-07-28T06:58:43.887Z,52.33
2022-07-28T07:01:15.562Z,51.99
2022-07-28T07:03:43.559Z,51.67
2022-07-28T07:06:10.924Z,51.60
2022-07-28T07:08:38.862Z,51.18
2022-07-28T07:11:05.797Z,51.09
2022-07-28T07:13:33.266Z,50.99
2022-07-28T07:16:00.615Z,51.09
2022-07-28T07:18:27.898Z,50.81
2022-07-28T07:20:57.861Z,50.59
2022-07-28T07:23:24.858Z,50.08
2022-07-28T07:25:51.772Z,50.20
2022-07-28T07:28:18.774Z,50.09
2022-07-28T07:30:45.609Z,49.86
2022-07-28T07:33:12.489Z,49.62
2022-07-28T07:35:39.485Z,49.27
2022-07-28T07:38:06.514Z,48.95
2022-07-28T07:40:33.703Z,48.86
2022-07-28T07:43:00.588Z,48.65
2022-07-28T07:45:27.639Z,48.53
2022-07-28T07:47:54.824Z,48.08
2022-07-28T07:50:22.246Z,47.72
2022-07-28T07:52:51.818Z,47.44
2022-07-28T07:55:18.833Z,47.11
2022-07-28T07:57:45.723Z,46.93
2022-07-28T08:00:28.211Z,46.76
2022-07-28T08:02:57.898Z,46.47
2022-07-28T08:05:35.383Z,46.38
2022-07-28T08:08:07.260Z,45.53
2022-07-28T08:10:36.944Z,45.76
2022-07-28T08:13:06.317Z,46.04
2022-07-28T08:15:34.382Z,45.81
2022-07-28T08:18:02.392Z,45.44
2022-07-28T08:20:29.614Z,45.45
2022-07-28T08:22:57.982Z,45.17
2022-07-28T08:25:25.335Z,44.82
2022-07-28T08:27:53.362Z,44.52
2022-07-28T08:30:22.274Z,44.15
2022-07-28T08:32:56.932Z,44.67
2022-07-28T08:35:34.949Z,43.75
2022-07-28T08:38:06.956Z,43.58
2022-07-28T08:40:38.065Z,43.76
2022-07-28T08:43:33.081Z,43.19
2022-07-28T08:46:09.132Z,42.89
2022-07-28T08:48:39.225Z,43.13
2022-07-28T08:51:12.291Z,43.45
2022-07-28T08:53:40.719Z,42.60
2022-07-28T08:56:12.480Z,43.08
2022-07-28T08:58:39.644Z,42.12
2022-07-28T09:01:09.243Z,42.81
2022-07-28T09:03:37.903Z,42.71
2022-07-28T09:06:05.754Z,42.05
2022-07-28T09:08:33.313Z,42.77
2022-07-28T09:11:00.360Z,42.79
2022-07-28T09:13:28.133Z,41.91
2022-07-28T09:15:55.408Z,43.16
2022-07-28T09:18:23.199Z,41.58
2022-07-28T09:20:50.325Z,42.12
2022-07-28T09:23:42.728Z,41.73
2022-07-28T09:26:12.729Z,41.25
2022-07-28T09:28:55.584Z,40.47
2022-07-28T09:31:27.780Z,40.52
2022-07-28T09:34:00.898Z,41.02
2022-07-28T09:36:39.194Z,40.76
2022-07-28T09:39:06.846Z,41.16
2022-07-28T09:41:50.765Z,40.18
2022-07-28T09:44:23.223Z,40.30
2022-07-28T09:46:51.000Z,40.37
2022-07-28T09:49:18.656Z,40.21
2022-07-28T09:52:03.843Z,40.06
2022-07-28T09:54:30.805Z,39.98
2022-07-28T09:56:58.331Z,39.50
2022-07-28T09:59:25.485Z,39.54
2022-07-28T10:02:03.003Z,39.02
2022-07-28T10:04:40.505Z,40.37
2022-07-28T10:07:11.439Z,39.48
2022-07-28T10:09:39.030Z,38.80
2022-07-28T10:12:27.898Z,38.92
2022-07-28T10:14:59.559Z,40.42
2022-07-28T10:17:32.946Z,39.95
2022-07-28T10:20:04.525Z,39.48
2022-07-28T10:22:38.284Z,39.10
2022-07-28T10:25:12.891Z,39.72
2022-07-28T10:27:42.670Z,38.26
2022-07-28T10:30:11.944Z,38.16
2022-07-28T10:32:42.823Z,38.42
2022-07-28T10:35:14.432Z,36.58
2022-07-28T10:38:11.389Z,36.45
2022-07-28T10:40:45.782Z,37.32
2022-07-28T10:43:13.659Z,36.47
2022-07-28T10:46:04.281Z,36.41
2022-07-28T10:48:29.537Z,36.10
2022-07-28T10:50:59.346Z,35.84
2022-07-28T10:53:55.059Z,36.23
2022-07-28T10:56:33.821Z,36.36
2022-07-28T10:59:32.440Z,36.24
2022-07-28T11:01:59.453Z,34.82
2022-07-28T11:04:45.171Z,35.76
2022-07-28T11:07:17.226Z,37.65
2022-07-28T11:09:47.288Z,36.35
2022-07-28T11:12:17.993Z,36.27
2022-07-28T11:14:45.721Z,38.31
2022-07-28T11:17:24.010Z,38.13
2022-07-28T11:22:44.374Z,36.42
2022-07-28T11:25:19.881Z,37.89
2022-07-28T11:27:51.941Z,37.27
2022-07-28T11:30:19.255Z,36.97
2022-07-28T11:32:54.936Z,37.57
2022-07-28T11:35:26.592Z,36.65
2022-07-28T11:38:02.703Z,35.27
2022-07-28T11:40:40.090Z,34.01
2022-07-28T11:43:37.131Z,33.16
2022-07-28T11:46:10.236Z,34.29
2022-07-28T11:48:47.451Z,33.64
2022-07-28T11:51:15.777Z,34.08
2022-07-28T11:53:50.722Z,34.58
2022-07-28T11:56:32.406Z,34.29
2022-07-28T11:59:02.785Z,32.36
2022-07-28T12:01:31.833Z,33.52
2022-07-28T12:04:00.657Z,34.89
2022-07-28T12:06:40.322Z,33.92
2022-07-28T12:09:10.043Z,34.63
2022-07-28T12:11:42.084Z,35.12
2022-07-28T12:14:16.992Z,32.60
2022-07-28T12:16:50.333Z,31.64
2022-07-28T12:19:20.107Z,30.73
2022-07-28T12:21:55.358Z,31.28
2022-07-28T12:24:31.099Z,31.06
2022-07-28T12:27:03.450Z,31.42
2022-07-28T12:29:36.129Z,32.42
2022-07-28T12:32:05.188Z,32.65
2022-07-28T12:34:35.301Z,31.36
2022-07-28T12:37:09.803Z,30.65
2022-07-28T12:39:39.729Z,29.55
2022-07-28T12:42:10.720Z,29.04
2022-07-28T12:44:41.560Z,29.62
2022-07-28T12:47:12.556Z,30.35
2022-07-28T12:49:42.981Z,31.66
2022-07-28T12:52:25.082Z,30.85
2022-07-28T12:54:55.588Z,31.79
2022-07-28T12:57:49.968Z,32.61
2022-07-28T13:00:31.540Z,33.40
2022-07-28T13:03:19.058Z,33.67
2022-07-28T13:06:04.124Z,30.99
2022-07-28T13:08:57.294Z,33.06
2022-07-28T13:11:46.078Z,30.02
2022-07-28T13:14:14.793Z,30.06
2022-07-28T13:16:42.028Z,30.34
2022-07-28T13:19:21.756Z,29.61
2022-07-28T13:22:01.559Z,30.10
2022-07-28T13:24:31.499Z,29.31
2022-07-28T13:26:59.336Z,29.44
2022-07-28T13:29:26.415Z,28.78
2022-07-28T13:31:54.836Z,29.88
2022-07-28T13:34:22.195Z,29.81
2022-07-28T13:36:49.192Z,30.70
2022-07-28T13:39:16.091Z,31.52
2022-07-28T13:41:57.357Z,32.80
2022-07-28T13:44:31.465Z,33.22
2022-07-28T13:47:00.465Z,32.54
2022-07-28T13:49:29.650Z,32.67
2022-07-28T13:51:57.243Z,32.30
2022-07-28T13:54:24.637Z,33.43
2022-07-28T13:57:10.919Z,33.20
2022-07-28T13:59:38.954Z,33.73
2022-07-28T14:02:06.465Z,33.07
2022-07-28T14:04:45.890Z,32.71
2022-07-28T14:07:21.263Z,32.15
2022-07-28T14:09:50.536Z,31.02
2022-07-28T14:12:18.082Z,31.76
2022-07-28T14:15:12.916Z,29.28
2022-07-28T14:17:43.462Z,28.61
2022-07-28T14:20:14.336Z,28.72
2022-07-28T14:22:43.724Z,28.22
2022-07-28T14:25:13.482Z,28.86
2022-07-28T14:27:49.097Z,28.19
2022-07-28T14:30:18.945Z,28.69
2022-07-28T14:32:46.158Z,28.64
2022-07-28T14:35:13.413Z,29.20
2022-07-28T14:38:11.575Z,29.95
2022-07-28T14:40:27.494Z,28.54
2022-07-28T14:42:54.491Z,27.25
2022-07-28T14:45:21.509Z,27.18
2022-07-28T14:47:48.451Z,26.99
2022-07-28T14:50:15.356Z,27.00
2022-07-28T14:52:44.778Z,27.58
2022-07-28T14:55:12.653Z,27.48
2022-07-28T14:57:50.094Z,27.23
2022-07-28T15:00:23.928Z,27.02
2022-07-28T15:02:53.003Z,27.03
2022-07-28T15:05:21.530Z,26.27
2022-07-28T15:07:51.768Z,26.95
2022-07-28T15:10:20.292Z,27.48
2022-07-28T15:12:47.251Z,27.19
2022-07-28T15:15:14.311Z,26.62
2022-07-28T15:17:41.339Z,26.49
2022-07-28T15:20:10.528Z,26.16
2022-07-28T15:22:37.646Z,26.53
2022-07-28T15:25:05.447Z,26.72
2022-07-28T15:27:33.824Z,26.88
2022-07-28T15:30:02.557Z,27.13
2022-07-28T15:32:31.797Z,27.17
2022-07-28T15:34:59.539Z,27.31
2022-07-28T15:37:27.860Z,27.17
2022-07-28T15:39:54.735Z,27.37
2022-07-28T15:42:21.603Z,27.61
2022-07-28T15:44:49.220Z,27.17
2022-07-28T15:47:16.491Z,27.52
2022-07-28T15:49:43.568Z,27.77
2022-07-28T15:52:10.649Z,28.38
2022-07-28T15:54:37.503Z,29.53
2022-07-28T15:57:04.795Z,29.28
2022-07-28T15:59:49.337Z,29.74
2022-07-28T16:02:18.674Z,30.01
2022-07-28T16:04:49.017Z,30.43
2022-07-28T16:07:24.659Z,30.52
2022-07-28T16:09:55.339Z,30.81
2022-07-28T16:12:25.768Z,30.67
2022-07-28T16:14:56.902Z,30.96
2022-07-28T16:17:24.495Z,30.69
2022-07-28T16:19:51.843Z,31.08
2022-07-28T16:22:20.794Z,30.78
2022-07-28T16:24:48.087Z,31.19
2022-07-28T16:27:15.199Z,31.22
2022-07-28T16:29:43.260Z,31.33
2022-07-28T16:32:10.329Z,31.21
2022-07-28T16:34:37.485Z,31.02
2022-07-28T16:37:05.667Z,30.78
2022-07-28T16:39:34.275Z,31.43
2022-07-28T16:42:02.875Z,31.10
2022-07-28T16:44:30.610Z,31.41
2022-07-28T16:46:58.864Z,31.68
2022-07-28T16:49:25.949Z,31.46
2022-07-28T16:51:54.569Z,31.55
2022-07-28T16:54:21.975Z,31.63
2022-07-28T16:56:50.223Z,31.20
2022-07-28T16:59:17.539Z,31.91
2022-07-28T17:01:46.515Z,31.49
2022-07-28T17:04:16.006Z,31.85
2022-07-28T17:06:43.620Z,32.27
2022-07-28T17:09:11.466Z,32.42
2022-07-28T17:11:38.866Z,32.24
2022-07-28T17:14:05.818Z,32.74
2022-07-28T17:16:32.734Z,32.14
2022-07-28T17:19:00.543Z,32.28
2022-07-28T17:21:27.698Z,32.23
2022-07-28T17:23:54.747Z,32.52
2022-07-28T17:27:32.400Z,32.05
2022-07-28T17:29:10.273Z,31.75
2022-07-28T17:31:38.632Z,31.92
2022-07-28T17:34:05.858Z,32.09
2022-07-28T17:36:35.260Z,32.14
2022-07-28T17:39:02.135Z,32.17
2022-07-28T17:41:30.290Z,32.22
2022-07-28T17:43:57.195Z,32.34
2022-07-28T17:46:26.697Z,32.64
2022-07-28T17:48:54.385Z,32.80
2022-07-28T17:51:21.494Z,32.53
2022-07-28T17:53:48.838Z,32.31
2022-07-28T17:56:17.538Z,32.96
2022-07-28T17:58:45.892Z,32.57
2022-07-28T18:01:15.067Z,32.58
2022-07-28T18:03:58.940Z,32.89
2022-07-28T18:06:30.385Z,32.86
2022-07-28T18:09:06.079Z,32.92
2022-07-28T18:11:37.739Z,33.05
2022-07-28T18:14:24.576Z,32.86
2022-07-28T18:16:51.812Z,32.98
2022-07-28T18:19:18.804Z,33.11
2022-07-28T18:21:46.058Z,33.01
2022-07-28T18:24:13.406Z,33.07
2022-07-28T18:26:40.762Z,33.45
2022-07-28T18:29:07.700Z,33.34
2022-07-28T18:31:34.649Z,33.78
2022-07-28T18:34:01.603Z,33.65
2022-07-28T18:36:28.574Z,33.93
2022-07-28T18:38:55.856Z,33.67
2022-07-28T18:41:22.806Z,34.22
2022-07-28T18:43:50.132Z,34.30
2022-07-28T18:46:17.195Z,34.68
2022-07-28T18:48:44.159Z,34.59
2022-07-28T18:51:14.981Z,35.01
2022-07-28T18:53:42.207Z,34.90
2022-07-28T18:56:09.160Z,35.60
2022-07-28T18:58:36.161Z,35.65
2022-07-28T19:01:03.050Z,35.49
2022-07-28T19:03:31.819Z,35.72
2022-07-28T19:05:58.939Z,36.07
2022-07-28T19:08:25.941Z,36.58
2022-07-28T19:10:52.796Z,37.04
2022-07-28T19:13:19.656Z,38.12
2022-07-28T19:15:46.674Z,37.90
2022-07-28T19:18:14.083Z,38.29
2022-07-28T19:20:40.990Z,38.66
2022-07-28T19:23:07.850Z,38.93
2022-07-28T19:25:36.518Z,39.36
2022-07-28T19:28:05.045Z,39.34
2022-07-28T19:30:32.276Z,39.02
2022-07-28T19:33:00.093Z,39.21
2022-07-28T19:35:27.049Z,39.62
2022-07-28T19:37:56.383Z,40.00
2022-07-28T19:40:25.352Z,40.14
2022-07-28T19:42:53.533Z,40.28
2022-07-28T19:45:20.529Z,40.53
2022-07-28T19:47:47.416Z,40.61
2022-07-28T19:50:17.483Z,40.77
2022-07-28T19:52:44.337Z,41.28
2022-07-28T19:55:11.469Z,41.29
2022-07-28T19:57:42.199Z,40.69
2022-07-28T20:00:10.311Z,41.03
2022-07-28T20:02:37.823Z,41.82
2022-07-28T20:05:06.898Z,41.96
2022-07-28T20:07:33.838Z,42.57
2022-07-28T20:10:01.021Z,42.69
2022-07-28T20:12:34.230Z,42.80
2022-07-28T20:15:01.163Z,43.22
2022-07-28T20:17:37.878Z,43.39
2022-07-28T20:20:09.282Z,43.45
2022-07-28T20:22:37.443Z,43.33
2022-07-28T20:25:09.954Z,42.90
2022-07-28T20:27:40.601Z,42.91
2022-07-28T20:30:10.377Z,43.79
2022-07-28T20:32:38.601Z,44.16
2022-07-28T20:35:09.239Z,44.84
2022-07-28T20:37:37.850Z,56.41
2022-07-28T20:40:07.350Z,63.35
2022-07-28T20:42:35.321Z,64.77
2022-07-28T20:45:02.530Z,68.16
2022-07-28T20:47:35.203Z,73.24
2022-07-28T20:50:05.035Z,77.58
2022-07-28T20:52:33.941Z,80.16
2022-07-28T20:55:01.069Z,79.15
2022-07-28T20:57:28.443Z,81.27
2022-07-28T20:59:55.422Z,82.90
2022-07-28T21:02:23.206Z,84.13
2022-07-28T21:04:51.605Z,84.76
2022-07-28T21:07:59.603Z,85.90
2022-07-28T21:10:11.043Z,86.92
2022-07-28T21:12:38.876Z,88.17
2022-07-28T21:15:08.157Z,87.16
2022-07-28T21:17:35.937Z,87.73
2022-07-28T21:20:04.578Z,88.70
2022-07-28T21:22:31.571Z,90.30
2022-07-28T21:24:59.135Z,88.92
2022-07-28T21:27:26.131Z,90.84
2022-07-28T21:32:19.337Z,88.00
2022-07-28T21:34:46.299Z,89.26
2022-07-28T21:37:13.982Z,91.26
2022-07-28T21:39:41.150Z,91.26
2022-07-28T21:42:09.244Z,90.12
2022-07-28T21:44:37.771Z,92.25
2022-07-28T21:47:05.190Z,90.96
2022-07-28T21:49:32.301Z,92.70
2022-07-28T21:51:59.904Z,88.98
2022-07-28T21:54:27.283Z,89.83
2022-07-28T21:56:54.157Z,89.71
2022-07-28T21:59:21.178Z,91.05
2022-07-28T22:01:48.202Z,92.87
2022-07-28T22:04:15.939Z,88.93
2022-07-28T22:06:45.937Z,92.45
2022-07-28T22:09:15.058Z,91.60
2022-07-28T22:11:42.266Z,91.40
2022-07-28T22:14:09.945Z,92.35
2022-07-28T22:16:37.394Z,92.16
2022-07-28T22:19:04.576Z,92.36
2022-07-28T22:21:31.862Z,91.81
2022-07-28T22:23:58.723Z,93.63
2022-07-28T22:26:25.711Z,92.87
2022-07-28T22:28:52.660Z,94.29
2022-07-28T22:31:19.828Z,96.08
2022-07-28T22:33:46.775Z,91.70
2022-07-28T22:36:14.144Z,91.45
2022-07-28T22:38:41.124Z,90.31
2022-07-28T22:41:09.510Z,87.86
2022-07-28T22:43:36.367Z,88.59
2022-07-28T22:46:03.292Z,88.59
2022-07-28T22:48:30.296Z,85.71
2022-07-28T22:50:57.699Z,86.80
2022-07-28T22:53:24.622Z,90.12
2022-07-28T22:55:51.428Z,86.63
2022-07-28T22:58:18.316Z,86.24
2022-07-28T23:00:45.223Z,87.35
2022-07-28T23:03:13.366Z,85.44
2022-07-28T23:05:42.781Z,84.59
2022-07-28T23:08:10.004Z,87.05
2022-07-28T23:10:37.757Z,84.67
2022-07-28T23:13:05.063Z,85.16
2022-07-28T23:15:39.472Z,83.56
2022-07-28T23:18:08.356Z,84.71
2022-07-28T23:20:35.266Z,81.40
2022-07-28T23:23:02.489Z,82.27
2022-07-28T23:25:29.395Z,81.28
2022-07-28T23:27:56.335Z,81.24
2022-07-28T23:30:23.177Z,82.54
2022-07-28T23:32:52.570Z,82.04
2022-07-28T23:35:20.034Z,83.10
2022-07-28T23:37:46.870Z,82.75
2022-07-28T23:40:14.302Z,83.30
2022-07-28T23:42:41.196Z,81.34
2022-07-28T23:45:09.327Z,81.46
2022-07-28T23:47:36.347Z,80.40
2022-07-28T23:50:05.277Z,79.55
2022-07-28T23:52:32.228Z,80.39
2022-07-28T23:54:59.532Z,80.27
2022-07-28T23:57:31.260Z,80.54
